Time;durP1;ratioP1;P1;durP2;ratioP2;P2;SDS_P1;SDS_P2;PMS_P1;PMS_P2;Temp;Humidity;BMP_temperature;BMP_pressure;BME280_temperature;BME280_humidity;BME280_pressure;Samples;Min_cycle;Max_cycle;Signal;HPM_P1;HPM_P2
2022/11/03 00:00:59;;;;;;;13.77;2.12;;;10.70;99.90;;;;;;7348247;32;20256;-59
2022/11/03 00:06:03;;;;;;;8.57;1.77;;;10.80;99.90;;;;;;7344265;32;20559;-59
2022/11/03 00:09:25;;;;;;;8.65;1.75;;;10.80;99.90;;;;;;7345022;32;20706;-59
2022/11/03 00:13:27;;;;;;;8.80;1.73;;;10.90;99.90;;;;;;7349055;32;20511;-59
2022/11/03 00:17:29;;;;;;;14.57;2.05;;;10.90;99.90;;;;;;7352371;32;20133;-59
2022/11/03 00:21:31;;;;;;;10.02;1.83;;;10.90;99.90;;;;;;7345233;32;20516;-59
2022/11/03 00:25:32;;;;;;;10.57;1.87;;;10.90;99.90;;;;;;7343969;32;20106;-59
2022/11/03 00:29:34;;;;;;;6.80;1.52;;;10.90;99.90;;;;;;7341867;32;20111;-58
2022/11/03 00:33:37;;;;;;;10.77;1.80;;;11.00;99.90;;;;;;7354013;32;20141;-60
2022/11/03 00:37:38;;;;;;;11.30;2.08;;;11.00;99.90;;;;;;7346854;32;20107;-59
2022/11/03 00:41:40;;;;;;;9.73;1.80;;;11.00;99.90;;;;;;7355697;32;20833;-59
2022/11/03 00:45:42;;;;;;;8.88;2.58;;;11.00;99.90;;;;;;7339916;32;20119;-59
2022/11/03 00:49:43;;;;;;;8.88;1.92;;;10.90;99.90;;;;;;7346571;32;20709;-59
2022/11/03 00:53:49;;;;;;;8.32;1.70;;;10.90;99.90;;;;;;7344505;32;20160;-59
2022/11/03 00:57:52;;;;;;;9.15;1.85;;;11.00;99.90;;;;;;7351832;32;20243;-59
2022/11/03 01:01:53;;;;;;;13.95;2.60;;;10.90;99.90;;;;;;7348727;32;20148;-59
2022/11/03 01:10:16;;;;;;;9.75;1.77;;;10.90;99.90;;;;;;7351613;32;20415;-60
2022/11/03 01:14:17;;;;;;;12.90;2.17;;;10.90;99.90;;;;;;7355980;32;20145;-59
2022/11/03 01:18:19;;;;;;;11.77;2.20;;;10.90;99.90;;;;;;7358149;32;20119;-60
2022/11/03 01:22:22;;;;;;;12.35;2.47;;;10.90;99.90;;;;;;7352770;32;20205;-59
2022/11/03 01:26:24;;;;;;;13.98;2.28;;;10.90;99.90;;;;;;7354604;32;20125;-59
2022/11/03 01:30:25;;;;;;;12.43;2.95;;;10.90;99.90;;;;;;7352792;32;20567;-59
2022/11/03 01:34:27;;;;;;;13.02;2.92;;;10.90;99.90;;;;;;7354427;32;20262;-59
2022/11/03 01:38:33;;;;;;;12.35;2.25;;;10.70;99.90;;;;;;7350843;32;20186;-59
2022/11/03 01:42:35;;;;;;;11.07;2.47;;;10.70;99.90;;;;;;7351442;32;20122;-59
2022/11/03 01:47:01;;;;;;;10.27;2.25;;;10.70;99.90;;;;;;7353316;32;20110;-59
2022/11/03 01:51:05;;;;;;;14.00;2.17;;;10.70;99.90;;;;;;7353588;32;20111;-59
2022/11/03 01:55:12;;;;;;;10.00;2.60;;;10.80;99.90;;;;;;7350787;32;20209;-59
2022/11/03 01:59:15;;;;;;;8.07;1.92;;;10.50;99.90;;;;;;7354263;32;20237;-59
2022/11/03 02:03:17;;;;;;;10.48;2.25;;;10.50;99.90;;;;;;7347628;32;20527;-59
2022/11/03 02:07:34;;;;;;;13.23;2.08;;;10.50;99.90;;;;;;7353407;32;20145;-59
2022/11/03 02:15:59;;;;;;;10.07;2.05;;;10.60;99.90;;;;;;7347587;32;20195;-59
2022/11/03 02:20:05;;;;;;;8.65;2.90;;;10.60;99.90;;;;;;7353701;32;20530;-59
2022/11/03 02:24:33;;;;;;;13.03;2.57;;;10.60;99.90;;;;;;7345932;32;20198;-59
2022/11/03 02:28:35;;;;;;;15.07;2.40;;;10.50;99.90;;;;;;7346055;32;20581;-59
2022/11/03 02:32:54;;;;;;;7.47;2.15;;;10.50;99.90;;;;;;7350735;32;20709;-59
2022/11/03 02:37:02;;;;;;;8.55;2.17;;;10.50;99.90;;;;;;7348743;32;20115;-59
2022/11/03 02:41:06;;;;;;;13.80;2.70;;;10.60;99.90;;;;;;7346366;32;20130;-59
2022/11/03 02:45:11;;;;;;;13.73;2.20;;;10.70;99.90;;;;;;7353752;32;20288;-59
2022/11/03 02:49:18;;;;;;;11.02;2.10;;;10.60;99.90;;;;;;7349120;32;20111;-60
2022/11/03 02:53:19;;;;;;;12.63;2.42;;;10.60;99.90;;;;;;7351211;32;20238;-60
2022/11/03 02:57:26;;;;;;;9.60;2.05;;;10.70;99.90;;;;;;7352342;32;20108;-59
2022/11/03 03:01:45;;;;;;;9.85;2.40;;;10.70;99.90;;;;;;7347300;32;20130;-59
2022/11/03 03:05:50;;;;;;;11.35;2.40;;;10.70;99.90;;;;;;7345024;32;20528;-59
2022/11/03 03:10:01;;;;;;;15.23;2.45;;;10.70;99.90;;;;;;7346556;32;20107;-59
2022/11/03 03:14:15;;;;;;;10.77;2.05;;;10.70;99.90;;;;;;7354494;32;20111;-59
2022/11/03 03:18:35;;;;;;;11.43;2.03;;;10.70;99.90;;;;;;7351163;32;20292;-59
2022/11/03 03:23:01;;;;;;;8.35;2.03;;;10.80;99.90;;;;;;7353356;32;20223;-60
2022/11/03 03:27:11;;;;;;;10.30;2.90;;;10.80;99.90;;;;;;7349012;32;20202;-59
2022/11/03 03:31:14;;;;;;;7.78;1.95;;;10.80;99.90;;;;;;7349228;32;20833;-59
2022/11/03 03:35:27;;;;;;;10.45;1.92;;;10.80;99.90;;;;;;7340228;32;20107;-59
2022/11/03 03:39:33;;;;;;;10.82;2.60;;;10.80;99.90;;;;;;7350439;32;20665;-58
2022/11/03 03:43:35;;;;;;;8.80;2.47;;;10.90;99.90;;;;;;7353621;32;20110;-59
2022/11/03 03:47:37;;;;;;;8.07;2.35;;;10.90;99.90;;;;;;7349645;32;20745;-58
2022/11/03 03:51:39;;;;;;;12.15;2.17;;;10.90;99.90;;;;;;7348328;32;20157;-58
2022/11/03 03:55:45;;;;;;;13.82;2.55;;;10.90;99.90;;;;;;7340593;32;20129;-58
2022/11/03 03:59:47;;;;;;;12.50;2.50;;;10.80;99.90;;;;;;7347519;32;20111;-58
2022/11/03 04:03:48;;;;;;;10.25;2.55;;;10.90;99.90;;;;;;7350345;32;20190;-58
2022/11/03 04:07:50;;;;;;;10.95;2.50;;;10.90;99.90;;;;;;7350448;32;20593;-58
2022/11/03 04:24:53;;;;;;;9.57;3.03;;;10.90;99.90;;;;;;7345571;32;20217;-59
2022/11/03 04:28:56;;;;;;;7.53;1.90;;;11.00;99.90;;;;;;7347243;32;20217;-58
2022/11/03 04:32:57;;;;;;;12.25;2.37;;;10.90;99.90;;;;;;7351463;32;20252;-58
2022/11/03 04:37:00;;;;;;;11.98;2.03;;;10.90;99.90;;;;;;7352174;32;20160;-58
2022/11/03 04:41:10;;;;;;;9.38;2.03;;;10.90;99.90;;;;;;7353227;32;20111;-58
2022/11/03 04:45:24;;;;;;;10.60;2.42;;;10.90;99.90;;;;;;7348299;32;20111;-58
2022/11/03 04:49:26;;;;;;;11.05;1.90;;;11.00;99.90;;;;;;7354145;32;20519;-58
2022/11/03 04:53:31;;;;;;;11.93;2.20;;;11.00;99.90;;;;;;7352599;32;20205;-59
2022/11/03 04:57:33;;;;;;;10.38;2.08;;;11.00;99.90;;;;;;7353837;32;20115;-58
2022/11/03 05:01:34;;;;;;;15.43;2.67;;;11.10;99.90;;;;;;7357590;32;20099;-58
2022/11/03 05:05:37;;;;;;;8.68;2.12;;;11.00;99.90;;;;;;7347990;32;20110;-58
2022/11/03 05:09:38;;;;;;;12.07;2.25;;;11.10;99.90;;;;;;7357055;32;20202;-58
2022/11/03 05:13:43;;;;;;;12.25;2.20;;;11.10;99.90;;;;;;7353738;32;20135;-57
2022/11/03 05:17:45;;;;;;;12.40;2.50;;;11.10;99.90;;;;;;7347159;32;20190;-59
2022/11/03 05:21:49;;;;;;;11.30;2.25;;;11.10;99.90;;;;;;7347916;32;20134;-58
2022/11/03 05:25:52;;;;;;;8.75;2.12;;;11.10;99.90;;;;;;7346381;32;20190;-58
2022/11/03 05:29:58;;;;;;;8.35;2.05;;;11.10;99.90;;;;;;7342992;32;20111;-58
2022/11/03 05:34:23;;;;;;;9.75;2.20;;;11.10;99.90;;;;;;7349958;32;20108;-58
2022/11/03 05:38:29;;;;;;;7.37;1.87;;;11.10;99.90;;;;;;7346821;32;20139;-58
2022/11/03 05:42:35;;;;;;;8.93;2.00;;;11.10;99.90;;;;;;7349125;32;20139;-58
2022/11/03 05:46:37;;;;;;;9.85;2.50;;;11.20;99.90;;;;;;7351696;32;20125;-58
2022/11/03 05:50:40;;;;;;;8.27;2.30;;;11.20;99.90;;;;;;7342843;32;20210;-58
2022/11/03 05:54:41;;;;;;;10.05;2.00;;;11.20;99.90;;;;;;7348482;32;20119;-58
2022/11/03 05:58:45;;;;;;;10.35;2.45;;;11.20;99.90;;;;;;7346164;32;20111;-58
2022/11/03 06:02:48;;;;;;;8.93;2.03;;;11.20;99.90;;;;;;7346415;32;20111;-58
2022/11/03 06:06:59;;;;;;;10.57;2.95;;;11.20;99.90;;;;;;7348644;32;20194;-58
2022/11/03 06:11:02;;;;;;;10.38;2.00;;;11.30;99.90;;;;;;7341358;32;20164;-58
2022/11/03 06:15:20;;;;;;;8.90;2.10;;;11.20;99.90;;;;;;7354537;32;20451;-58
2022/11/03 06:19:30;;;;;;;13.52;2.75;;;11.20;99.90;;;;;;7350190;32;20198;-58
2022/11/03 06:23:33;;;;;;;7.25;2.00;;;11.20;99.90;;;;;;7355735;32;20111;-59
2022/11/03 06:27:35;;;;;;;11.90;2.55;;;11.20;99.90;;;;;;7348497;32;20131;-58
2022/11/03 06:31:37;;;;;;;9.55;1.95;;;11.20;99.90;;;;;;7341727;32;20190;-63
2022/11/03 06:35:39;;;;;;;15.43;2.42;;;11.20;99.90;;;;;;7349349;32;20749;-63
2022/11/03 06:39:41;;;;;;;7.68;2.00;;;11.20;99.90;;;;;;7344585;32;20671;-63
2022/11/03 06:43:42;;;;;;;10.27;2.30;;;11.20;99.90;;;;;;7351334;32;20133;-62
2022/11/03 06:47:44;;;;;;;12.82;2.35;;;11.20;99.90;;;;;;7349443;32;20594;-63
2022/11/03 06:51:46;;;;;;;11.80;3.25;;;11.30;99.90;;;;;;7354443;32;20115;-62
2022/11/03 06:55:48;;;;;;;10.57;2.37;;;11.30;99.90;;;;;;7346282;32;20111;-62
2022/11/03 06:59:53;;;;;;;10.38;2.45;;;11.30;99.90;;;;;;7351521;32;20115;-63
2022/11/03 07:04:19;;;;;;;10.10;2.45;;;11.30;99.90;;;;;;7347031;32;20127;-62
2022/11/03 07:08:26;;;;;;;8.77;2.25;;;11.30;99.90;;;;;;7343257;32;20200;-63
2022/11/03 07:12:28;;;;;;;13.98;2.35;;;11.30;99.90;;;;;;7356081;32;20111;-62
2022/11/03 07:16:58;;;;;;;13.07;2.62;;;11.30;99.90;;;;;;7351859;32;20111;-62
2022/11/03 07:21:05;;;;;;;7.75;2.20;;;11.30;99.90;;;;;;7350582;32;20230;-63
2022/11/03 07:25:19;;;;;;;9.95;2.50;;;11.50;99.90;;;;;;7350516;32;20190;-64
2022/11/03 07:29:24;;;;;;;9.60;2.17;;;11.50;99.90;;;;;;7347085;32;20116;-62
2022/11/03 07:33:29;;;;;;;14.73;2.45;;;11.60;99.90;;;;;;7346105;32;20134;-64
2022/11/03 07:37:30;;;;;;;9.60;2.15;;;11.60;99.90;;;;;;7353058;32;20107;-63
2022/11/03 07:41:32;;;;;;;13.27;2.40;;;11.80;99.90;;;;;;7352601;32;20786;-63
2022/11/03 07:45:46;;;;;;;11.25;1.87;;;11.80;99.90;;;;;;7350805;32;20677;-62
2022/11/03 07:49:48;;;;;;;10.73;2.30;;;12.00;99.90;;;;;;7352458;32;20134;-62
2022/11/03 07:53:52;;;;;;;9.40;2.40;;;12.10;99.90;;;;;;7353053;32;20259;-62
2022/11/03 07:57:54;;;;;;;12.65;2.22;;;12.30;99.90;;;;;;7343299;32;20256;-63
2022/11/03 08:01:57;;;;;;;10.48;1.95;;;12.30;99.90;;;;;;7347871;32;20111;-67
2022/11/03 08:05:59;;;;;;;9.40;1.80;;;12.30;99.90;;;;;;7344966;32;20206;-66
2022/11/03 08:10:06;;;;;;;8.85;2.45;;;12.40;99.90;;;;;;7347570;32;20702;-66
2022/11/03 08:14:08;;;;;;;9.88;2.33;;;12.30;99.90;;;;;;7351535;32;20132;-66
2022/11/03 08:18:09;;;;;;;12.75;2.15;;;12.50;99.90;;;;;;7349665;32;20107;-66
2022/11/03 08:22:11;;;;;;;12.85;2.28;;;12.50;99.90;;;;;;7350790;32;20123;-67
2022/11/03 08:26:13;;;;;;;11.85;2.85;;;12.50;99.90;;;;;;7355799;32;20149;-67
2022/11/03 08:30:15;;;;;;;7.50;1.70;;;12.50;99.90;;;;;;7344133;32;20137;-64
2022/11/03 08:34:16;;;;;;;10.68;2.35;;;12.60;99.90;;;;;;7340556;32;20170;-64
2022/11/03 08:38:18;;;;;;;10.65;2.30;;;12.50;99.90;;;;;;7338376;32;20699;-63
2022/11/03 08:42:20;;;;;;;7.22;2.15;;;12.50;99.90;;;;;;7344145;32;20618;-64
2022/11/03 08:46:22;;;;;;;8.75;2.10;;;12.50;99.90;;;;;;7344114;32;20132;-64
2022/11/03 08:50:23;;;;;;;7.82;2.30;;;12.60;99.90;;;;;;7341738;32;20299;-63
2022/11/03 08:54:25;;;;;;;8.50;2.10;;;12.70;99.90;;;;;;7351221;32;20187;-65
2022/11/03 08:58:27;;;;;;;11.25;2.67;;;12.80;99.90;;;;;;7347539;32;20216;-61
2022/11/03 09:02:28;;;;;;;8.70;2.40;;;12.90;99.90;;;;;;7348778;32;20182;-62
2022/11/03 09:06:30;;;;;;;11.25;2.53;;;13.00;99.90;;;;;;7351841;32;20170;-63
2022/11/03 09:10:32;;;;;;;8.43;2.42;;;13.00;99.90;;;;;;7353652;32;20130;-63
2022/11/03 09:14:38;;;;;;;9.82;2.35;;;13.00;99.90;;;;;;7352009;32;20254;-65
2022/11/03 09:18:40;;;;;;;12.07;2.42;;;13.10;99.90;;;;;;7345049;32;20130;-65
2022/11/03 09:22:42;;;;;;;9.68;2.45;;;13.20;99.90;;;;;;7348678;32;20111;-65
2022/11/03 09:26:43;;;;;;;8.55;1.95;;;13.30;99.90;;;;;;7349946;32;20166;-65
2022/11/03 09:30:45;;;;;;;7.60;2.12;;;13.40;99.90;;;;;;7343781;32;20534;-65
2022/11/03 09:34:47;;;;;;;10.85;2.45;;;13.50;99.90;;;;;;7352212;32;20115;-66
2022/11/03 09:38:49;;;;;;;16.02;2.83;;;13.60;99.90;;;;;;7354399;32;20236;-64
2022/11/03 09:42:51;;;;;;;9.60;2.40;;;13.60;99.90;;;;;;7353095;32;20120;-64
2022/11/03 09:46:53;;;;;;;9.00;2.22;;;13.70;99.90;;;;;;7351514;32;20108;-65
2022/11/03 09:51:00;;;;;;;11.15;2.17;;;13.70;99.90;;;;;;7342230;32;20636;-63
2022/11/03 09:55:01;;;;;;;9.82;1.92;;;13.70;99.90;;;;;;7345420;32;20256;-64
2022/11/03 09:59:13;;;;;;;6.93;1.92;;;13.70;99.90;;;;;;7348760;32;20617;-65
2022/11/03 10:03:16;;;;;;;10.82;2.12;;;13.80;99.90;;;;;;7344955;32;20318;-65
2022/11/03 10:07:19;;;;;;;9.48;1.98;;;13.80;99.90;;;;;;7347334;32;20142;-66
2022/11/03 10:11:21;;;;;;;11.00;2.10;;;14.00;99.90;;;;;;7352233;32;20443;-67
2022/11/03 10:15:24;;;;;;;10.52;1.80;;;14.00;99.90;;;;;;7349493;32;20186;-66
2022/11/03 10:19:26;;;;;;;6.65;1.83;;;14.10;99.90;;;;;;7343971;32;20111;-64
2022/11/03 10:23:28;;;;;;;9.48;2.22;;;14.10;99.90;;;;;;7345219;32;20108;-63
2022/11/03 10:27:30;;;;;;;10.70;1.50;;;14.10;99.90;;;;;;7345483;32;20288;-63
2022/11/03 10:31:33;;;;;;;7.65;1.60;;;14.20;99.90;;;;;;7352146;32;20134;-65
2022/11/03 10:35:35;;;;;;;7.68;2.12;;;14.20;99.90;;;;;;7357417;32;20229;-64
2022/11/03 10:39:36;;;;;;;6.78;1.30;;;14.30;99.90;;;;;;7357981;32;20118;-64
2022/11/03 10:43:40;;;;;;;7.53;1.85;;;14.40;99.90;;;;;;7359420;32;20133;-63
2022/11/03 10:47:41;;;;;;;7.57;1.48;;;14.30;99.90;;;;;;7350377;32;20103;-64
2022/11/03 10:51:46;;;;;;;6.72;1.60;;;14.40;99.90;;;;;;7353383;32;20137;-63
2022/11/03 10:55:48;;;;;;;5.22;1.15;;;14.60;99.90;;;;;;7350893;32;20562;-64
2022/11/03 10:59:52;;;;;;;6.40;1.60;;;14.80;99.90;;;;;;7350328;32;20206;-64
2022/11/03 11:03:54;;;;;;;7.82;1.62;;;15.00;99.90;;;;;;7359684;32;20141;-64
2022/11/03 11:07:58;;;;;;;6.85;1.50;;;15.00;99.90;;;;;;7355210;32;20107;-64
2022/11/03 11:12:20;;;;;;;5.15;1.30;;;15.10;99.90;;;;;;7350847;32;20262;-64
2022/11/03 11:16:48;;;;;;;6.00;1.40;;;15.20;99.90;;;;;;7352217;32;20240;-64
2022/11/03 11:20:49;;;;;;;6.53;1.25;;;15.00;99.90;;;;;;7343709;32;20302;-64
2022/11/03 11:24:51;;;;;;;8.18;1.42;;;15.10;99.90;;;;;;7352703;32;20555;-64
2022/11/03 11:29:08;;;;;;;6.12;1.33;;;15.20;99.90;;;;;;7350622;32;20108;-65
2022/11/03 11:33:22;;;;;;;6.18;1.65;;;15.30;99.90;;;;;;7344340;32;20553;-65
2022/11/03 11:37:24;;;;;;;7.22;1.27;;;15.10;99.90;;;;;;7351941;32;20226;-65
2022/11/03 11:42:04;;;;;;;5.07;1.33;;;15.10;99.90;;;;;;7350927;32;20111;-64
2022/11/03 11:46:38;;;;;;;5.10;1.05;;;15.00;99.90;;;;;;7352440;32;20126;-63
2022/11/03 11:50:40;;;;;;;5.78;1.20;;;14.90;99.90;;;;;;7344088;32;20183;-65
2022/11/03 11:54:42;;;;;;;5.40;1.70;;;14.80;99.90;;;;;;7355651;32;20279;-65
2022/11/03 11:58:49;;;;;;;3.70;1.30;;;14.90;99.90;;;;;;7354551;32;20119;-65
2022/11/03 12:02:52;;;;;;;;;;;14.80;99.90;;;;;;7354618;32;20158;-65
2022/11/03 12:06:54;;;;;;;8.45;1.77;;;14.80;99.90;;;;;;7351493;32;20011;-65
2022/11/03 12:11:01;;;;;;;9.18;1.50;;;14.80;99.90;;;;;;7355152;32;20170;-65
2022/11/03 12:15:03;;;;;;;4.05;1.20;;;14.60;99.90;;;;;;7355261;32;20137;-65
2022/11/03 12:19:40;;;;;;;5.72;1.10;;;14.60;99.90;;;;;;7349367;32;20285;-65
2022/11/03 12:23:44;;;;;;;7.35;1.48;;;14.50;99.90;;;;;;7351964;32;20099;-63
2022/11/03 12:27:46;;;;;;;4.80;1.20;;;14.40;99.90;;;;;;7355145;32;20595;-65
2022/11/03 12:31:48;;;;;;;4.72;1.00;;;14.50;99.90;;;;;;7355156;32;20145;-65
2022/11/03 12:35:50;;;;;;;6.40;1.12;;;14.50;99.90;;;;;;7356961;32;20228;-64
2022/11/03 12:39:51;;;;;;;3.87;1.15;;;14.60;99.90;;;;;;7349392;32;20111;-65
2022/11/03 12:43:54;;;;;;;3.75;1.42;;;14.70;99.90;;;;;;7352737;32;20107;-65
2022/11/03 12:47:56;;;;;;;7.25;1.33;;;14.60;99.90;;;;;;7353415;32;20112;-65
2022/11/03 12:52:05;;;;;;;8.90;1.52;;;14.60;99.90;;;;;;7351877;32;20847;-64
2022/11/03 12:56:09;;;;;;;4.12;1.10;;;14.60;99.90;;;;;;7349926;32;20825;-66
2022/11/03 13:00:13;;;;;;;7.80;1.20;;;14.60;99.90;;;;;;7347484;32;20482;-67
2022/11/03 13:04:15;;;;;;;4.55;1.20;;;14.60;99.90;;;;;;7344391;32;20241;-66
2022/11/03 13:08:16;;;;;;;4.00;1.40;;;14.50;99.90;;;;;;7347430;32;20171;-67
2022/11/03 13:12:33;;;;;;;5.28;1.37;;;14.50;99.90;;;;;;7348844;32;20197;-66
2022/11/03 13:16:35;;;;;;;4.80;1.20;;;14.30;99.90;;;;;;7349100;32;20230;-65
2022/11/03 13:20:37;;;;;;;5.80;1.45;;;14.20;99.90;;;;;;7352330;32;20130;-64
2022/11/03 13:24:39;;;;;;;6.68;1.30;;;14.30;99.90;;;;;;7346180;32;20108;-65
2022/11/03 13:28:41;;;;;;;4.00;1.30;;;14.20;99.90;;;;;;7349392;32;20257;-65
2022/11/03 13:32:42;;;;;;;6.47;1.20;;;14.30;99.90;;;;;;7357241;32;20436;-65
2022/11/03 13:36:44;;;;;;;6.62;1.48;;;14.30;99.90;;;;;;7348731;32;20115;-65
2022/11/03 13:40:46;;;;;;;6.68;1.20;;;14.30;99.90;;;;;;7357766;32;20130;-66
2022/11/03 13:44:59;;;;;;;4.82;1.40;;;14.20;99.90;;;;;;7352615;32;20281;-64
2022/11/03 13:49:01;;;;;;;5.65;1.40;;;14.20;99.90;;;;;;7355555;32;20107;-64
2022/11/03 13:53:23;;;;;;;9.95;1.70;;;14.30;99.90;;;;;;7351267;32;20108;-65
2022/11/03 13:57:45;;;;;;;4.05;1.60;;;14.20;99.90;;;;;;7342691;32;20215;-65
2022/11/03 14:02:06;;;;;;;5.32;1.12;;;14.30;99.90;;;;;;7353185;32;20551;-64
2022/11/03 14:06:28;;;;;;;5.12;1.33;;;14.20;99.90;;;;;;7348833;32;20417;-63
2022/11/03 14:10:30;;;;;;;5.35;1.50;;;14.10;99.90;;;;;;7357070;32;20190;-64
2022/11/03 14:14:31;;;;;;;5.07;1.55;;;14.10;99.90;;;;;;7359895;32;20557;-66
2022/11/03 14:18:33;;;;;;;6.32;1.42;;;14.00;99.90;;;;;;7353218;32;20182;-64
2022/11/03 14:22:35;;;;;;;6.37;1.60;;;13.80;99.90;;;;;;7350748;32;20120;-65
2022/11/03 14:26:36;;;;;;;6.55;1.52;;;13.80;99.90;;;;;;7349595;32;20468;-65
2022/11/03 14:30:43;;;;;;;5.75;1.60;;;13.80;99.90;;;;;;7351195;32;20116;-65
2022/11/03 14:34:46;;;;;;;4.12;1.45;;;13.80;99.90;;;;;;7355963;32;20103;-65
2022/11/03 14:38:48;;;;;;;4.45;1.48;;;13.90;99.90;;;;;;7351668;32;20190;-65
2022/11/03 14:42:50;;;;;;;5.32;2.05;;;13.70;99.90;;;;;;7355964;32;20257;-65
2022/11/03 14:46:52;;;;;;;8.23;1.52;;;13.50;99.90;;;;;;7355917;32;20537;-64
2022/11/03 14:50:54;;;;;;;4.80;1.62;;;13.40;99.90;;;;;;7356476;32;20456;-65
2022/11/03 14:54:55;;;;;;;5.30;1.80;;;13.20;99.90;;;;;;7352344;32;20111;-65
2022/11/03 14:58:57;;;;;;;7.10;1.70;;;13.00;99.90;;;;;;7340617;32;20190;-65
2022/11/03 15:02:59;;;;;;;6.70;1.80;;;12.90;99.90;;;;;;7344566;32;20108;-64
2022/11/03 15:07:01;;;;;;;6.93;1.98;;;12.90;99.90;;;;;;7345107;32;20123;-65
2022/11/03 15:11:06;;;;;;;6.12;1.85;;;12.80;99.90;;;;;;7343212;32;20217;-66
2022/11/03 15:15:08;;;;;;;6.43;2.15;;;12.80;99.90;;;;;;7340748;32;20118;-65
2022/11/03 15:19:10;;;;;;;8.68;2.20;;;12.60;99.90;;;;;;7343950;32;20182;-63
2022/11/03 15:23:12;;;;;;;6.55;2.05;;;12.50;99.90;;;;;;7344495;32;20886;-64
2022/11/03 15:27:33;;;;;;;4.80;1.73;;;12.20;99.90;;;;;;7356396;32;20229;-63
2022/11/03 15:31:35;;;;;;;10.57;2.37;;;12.00;99.90;;;;;;7348600;32;20467;-64
2022/11/03 15:35:37;;;;;;;6.85;2.50;;;11.90;99.90;;;;;;7354867;32;20136;-63
2022/11/03 15:39:38;;;;;;;8.00;2.37;;;11.80;99.90;;;;;;7345175;32;20171;-64
2022/11/03 15:43:42;;;;;;;8.18;2.65;;;11.70;99.90;;;;;;7347205;32;20202;-65
2022/11/03 15:47:44;;;;;;;6.12;2.95;;;11.60;99.90;;;;;;7347689;32;20249;-64
2022/11/03 15:51:45;;;;;;;5.47;2.72;;;11.50;99.90;;;;;;7346172;32;20107;-63
2022/11/03 15:55:47;;;;;;;7.60;3.45;;;11.50;99.90;;;;;;7346542;32;21112;-64
2022/11/03 15:59:49;;;;;;;11.25;3.17;;;11.40;99.90;;;;;;7351427;32;20131;-60
2022/11/03 16:03:56;;;;;;;11.77;3.60;;;11.30;99.90;;;;;;7344565;32;20556;-60
2022/11/03 16:07:59;;;;;;;10.07;3.22;;;11.30;99.90;;;;;;7345833;32;20141;-61
2022/11/03 16:12:00;;;;;;;5.18;3.10;;;11.30;99.90;;;;;;7350433;32;20633;-61
2022/11/03 16:16:03;;;;;;;6.72;2.78;;;11.30;99.90;;;;;;7343604;32;20249;-65
2022/11/03 16:20:06;;;;;;;7.30;2.75;;;11.40;99.90;;;;;;7349366;32;20125;-66
2022/11/03 16:24:08;;;;;;;5.00;2.60;;;11.40;99.90;;;;;;7347851;32;20124;-66
2022/11/03 16:28:09;;;;;;;6.60;2.90;;;11.30;99.90;;;;;;7346339;32;20099;-66
2022/11/03 16:32:11;;;;;;;7.53;3.00;;;11.30;99.90;;;;;;7348452;32;20138;-64
2022/11/03 16:36:13;;;;;;;6.12;3.08;;;11.20;99.90;;;;;;7348676;32;20197;-64
2022/11/03 16:40:15;;;;;;;10.18;3.75;;;11.30;99.90;;;;;;7341972;32;20213;-63
2022/11/03 16:44:20;;;;;;;9.98;3.40;;;11.20;99.90;;;;;;7347740;32;20182;-64
2022/11/03 16:48:22;;;;;;;10.55;3.30;;;11.20;99.90;;;;;;7349682;32;20133;-66
2022/11/03 16:52:24;;;;;;;6.40;2.90;;;11.20;99.90;;;;;;7351802;32;20245;-68
2022/11/03 16:56:26;;;;;;;8.05;3.17;;;11.10;99.90;;;;;;7346769;32;20564;-66
2022/11/03 17:00:27;;;;;;;6.68;2.87;;;11.10;99.90;;;;;;7346063;32;20115;-64
2022/11/03 17:04:29;;;;;;;9.50;3.10;;;11.10;99.90;;;;;;7350783;32;20147;-63
2022/11/03 17:08:31;;;;;;;5.37;2.83;;;11.20;99.90;;;;;;7347642;32;20194;-64
2022/11/03 17:12:52;;;;;;;9.68;3.30;;;11.20;99.90;;;;;;7359169;32;20115;-64
2022/11/03 17:16:54;;;;;;;5.45;3.08;;;11.10;99.90;;;;;;7350863;32;20123;-63
2022/11/03 17:20:58;;;;;;;9.40;3.55;;;11.10;99.90;;;;;;7352314;32;20119;-62
2022/11/03 17:25:00;;;;;;;7.62;3.35;;;11.10;99.90;;;;;;7358151;32;20111;-62
2022/11/03 17:29:02;;;;;;;8.00;3.60;;;11.20;99.90;;;;;;7350522;32;20115;-63
2022/11/03 17:33:11;;;;;;;8.57;2.85;;;11.10;99.90;;;;;;7347471;32;20141;-63
2022/11/03 17:37:13;;;;;;;5.78;3.22;;;11.20;99.90;;;;;;7348432;32;20244;-63
2022/11/03 17:41:14;;;;;;;9.98;3.90;;;11.20;99.90;;;;;;7350256;32;20244;-62
2022/11/03 17:45:21;;;;;;;6.97;3.12;;;11.20;99.90;;;;;;7348514;32;20154;-63
2022/11/03 17:49:23;;;;;;;6.05;2.95;;;11.20;99.90;;;;;;7351494;32;20202;-63
2022/11/03 17:53:30;;;;;;;6.75;2.97;;;11.20;99.90;;;;;;7348906;32;20146;-64
2022/11/03 17:57:31;;;;;;;7.47;3.10;;;11.30;99.90;;;;;;7348347;32;20198;-62
2022/11/03 18:01:34;;;;;;;7.10;3.55;;;11.30;99.90;;;;;;7348853;32;20221;-62
2022/11/03 18:05:36;;;;;;;7.03;2.90;;;11.30;99.90;;;;;;7344786;32;20111;-64
2022/11/03 18:09:38;;;;;;;5.50;2.83;;;11.40;99.90;;;;;;7352058;32;20194;-63
2022/11/03 18:13:40;;;;;;;5.68;2.67;;;11.40;99.90;;;;;;7346276;32;20233;-62
2022/11/03 18:17:42;;;;;;;8.15;3.42;;;11.50;99.90;;;;;;7348194;32;20278;-61
2022/11/03 18:21:44;;;;;;;6.10;3.67;;;11.50;99.90;;;;;;7346493;32;20134;-64
2022/11/03 18:25:47;;;;;;;6.35;3.03;;;11.50;99.90;;;;;;7349391;32;20119;-62
2022/11/03 18:29:48;;;;;;;10.90;3.67;;;11.60;99.90;;;;;;7347895;32;20143;-62
2022/11/03 18:33:51;;;;;;;6.62;3.53;;;11.50;99.90;;;;;;7346646;32;20244;-64
2022/11/03 18:37:54;;;;;;;10.73;3.80;;;11.50;99.90;;;;;;7351284;32;20219;-64
2022/11/03 18:41:55;;;;;;;7.15;3.50;;;11.50;99.90;;;;;;7351363;32;20197;-65
2022/11/03 18:45:57;;;;;;;7.32;4.35;;;11.50;99.90;;;;;;7350677;32;20779;-62
2022/11/03 18:49:59;;;;;;;8.25;4.10;;;11.50;99.90;;;;;;7349516;32;20129;-65
2022/11/03 18:54:01;;;;;;;7.65;3.67;;;11.50;99.90;;;;;;7353687;32;20186;-64
2022/11/03 18:58:24;;;;;;;9.30;4.15;;;11.50;99.90;;;;;;7349072;32;20550;-64
2022/11/03 19:02:27;;;;;;;8.43;4.20;;;11.50;99.90;;;;;;7344671;32;20155;-61
2022/11/03 19:06:28;;;;;;;7.30;4.05;;;11.50;99.90;;;;;;7355349;32;20533;-62
2022/11/03 19:10:30;;;;;;;7.47;4.00;;;11.50;99.90;;;;;;7341227;32;20135;-64
2022/11/03 19:14:35;;;;;;;6.72;3.97;;;11.50;99.90;;;;;;7345528;32;21328;-61
2022/11/03 19:18:36;;;;;;;11.40;4.62;;;11.50;99.90;;;;;;7348207;32;20245;-61
2022/11/03 19:22:38;;;;;;;9.65;4.47;;;11.50;99.90;;;;;;7346048;32;20111;-62
2022/11/03 19:26:53;;;;;;;6.65;4.10;;;11.40;99.90;;;;;;7344888;32;20121;-61
2022/11/03 19:30:56;;;;;;;6.25;3.97;;;11.40;99.90;;;;;;7346321;32;20235;-61
2022/11/03 19:35:18;;;;;;;8.60;4.35;;;11.40;99.90;;;;;;7343410;32;20209;-61
2022/11/03 19:39:22;;;;;;;9.05;4.50;;;11.30;99.90;;;;;;7346593;32;20180;-62
2022/11/03 19:43:24;;;;;;;7.50;4.22;;;11.30;99.90;;;;;;7347447;32;20970;-63
2022/11/03 19:47:38;;;;;;;10.70;4.80;;;11.30;99.90;;;;;;7349867;32;20636;-59
2022/11/03 19:51:53;;;;;;;9.18;4.60;;;11.20;99.90;;;;;;7344057;32;20182;-60
2022/11/03 19:55:55;;;;;;;8.43;4.50;;;11.20;99.90;;;;;;7342789;32;20104;-60
2022/11/03 19:59:58;;;;;;;9.20;4.55;;;11.20;99.90;;;;;;7344293;32;20099;-61
2022/11/03 20:04:00;;;;;;;9.70;4.95;;;11.20;99.90;;;;;;7349591;32;20111;-60
2022/11/03 20:08:05;;;;;;;8.25;5.07;;;11.20;99.90;;;;;;7344670;32;20193;-60
2022/11/03 20:12:11;;;;;;;12.97;5.77;;;11.20;99.90;;;;;;7346850;32;20294;-61
2022/11/03 20:16:15;;;;;;;7.87;5.43;;;11.20;99.90;;;;;;7346188;32;20111;-60
2022/11/03 20:20:19;;;;;;;10.63;5.35;;;11.20;99.90;;;;;;7338761;32;20920;-60
2022/11/03 20:24:21;;;;;;;10.60;5.10;;;11.30;99.90;;;;;;7343177;32;20901;-60
2022/11/03 20:28:27;;;;;;;10.90;5.30;;;11.30;99.90;;;;;;7347236;32;20554;-59
2022/11/03 20:32:28;;;;;;;11.90;5.53;;;11.30;99.90;;;;;;7343922;32;20111;-60
2022/11/03 20:36:32;;;;;;;8.48;5.22;;;11.30;99.90;;;;;;7343224;32;20186;-60
2022/11/03 20:40:33;;;;;;;12.65;6.43;;;11.30;99.90;;;;;;7344682;32;20235;-61
2022/11/03 20:44:35;;;;;;;9.50;5.30;;;11.30;99.90;;;;;;7337746;32;20106;-60
2022/11/03 20:48:37;;;;;;;11.52;5.00;;;11.40;99.90;;;;;;7343055;32;20691;-60
2022/11/03 20:52:40;;;;;;;9.15;4.93;;;11.40;99.90;;;;;;7343509;32;20122;-61
2022/11/03 20:56:42;;;;;;;9.43;4.68;;;11.40;99.90;;;;;;7344461;32;20213;-60
2022/11/03 21:00:46;;;;;;;8.98;5.28;;;11.40;99.90;;;;;;7345547;32;20550;-61
2022/11/03 21:04:48;;;;;;;11.98;5.60;;;11.40;99.90;;;;;;7348525;32;20147;-61
2022/11/03 21:08:51;;;;;;;9.30;5.53;;;11.40;99.90;;;;;;7344904;32;20497;-61
2022/11/03 21:12:53;;;;;;;9.02;5.57;;;11.40;99.90;;;;;;7344412;32;20206;-61
2022/11/03 21:21:15;;;;;;;12.93;6.07;;;11.50;99.90;;;;;;7338962;32;20107;-60
2022/11/03 21:25:22;;;;;;;11.10;6.53;;;11.40;99.90;;;;;;7347824;32;20421;-61
2022/11/03 21:29:25;;;;;;;12.43;6.82;;;11.40;99.90;;;;;;7349641;32;20209;-61
2022/11/03 21:33:46;;;;;;;9.48;6.22;;;11.40;99.90;;;;;;7350377;32;20111;-62